Time;durP1;ratioP1;P1;durP2;ratioP2;P2;SDS_P1;SDS_P2;PMS_P1;PMS_P2;Temp;Humidity;BMP_temperature;BMP_pressure;BME280_temperature;BME280_humidity;BME280_pressure;Samples;Min_cycle;Max_cycle;Signal;HPM_P1;HPM_P2
2021/03/02 00:00:00;;;;;;;28.13;12.48;;;11.40;65.40;;;;;;5084665;22;20060;-62
2021/03/02 00:02:26;;;;;;;31.65;12.30;;;11.30;65.00;;;;;;5066938;22;20121;-62
2021/03/02 00:04:52;;;;;;;29.70;13.38;;;11.30;65.50;;;;;;5082915;22;20044;-62
2021/03/02 00:07:18;;;;;;;35.05;13.10;;;11.10;65.60;;;;;;5103310;22;20044;-62
2021/03/02 00:09:44;;;;;;;31.58;12.70;;;11.10;66.30;;;;;;5086580;22;20097;-62
2021/03/02 00:12:10;;;;;;;30.73;13.13;;;11.10;65.10;;;;;;5102755;22;20051;-62
2021/03/02 00:14:37;;;;;;;29.70;13.40;;;11.00;66.20;;;;;;5083615;22;20048;-62
2021/03/02 00:24:41;;;;;;;31.10;13.23;;;11.00;65.40;;;;;;5104857;22;20060;-62
2021/03/02 00:27:10;;;;;;;35.65;13.07;;;11.00;65.60;;;;;;5085652;22;20052;-62
2021/03/02 00:29:40;;;;;;;27.80;13.77;;;11.00;65.50;;;;;;5105600;22;20124;-62
2021/03/02 00:32:08;;;;;;;32.10;12.43;;;11.00;65.10;;;;;;5066844;22;20057;-62
2021/03/02 00:34:34;;;;;;;30.73;13.18;;;11.00;65.60;;;;;;5104700;22;20048;-62
2021/03/02 00:36:59;;;;;;;30.85;13.43;;;10.90;65.50;;;;;;5066412;22;20525;-62
2021/03/02 00:41:51;;;;;;;26.92;11.95;;;11.10;64.90;;;;;;5144739;22;20058;-62
2021/03/02 00:44:17;;;;;;;32.33;12.82;;;11.10;64.60;;;;;;5083742;22;20079;-62
2021/03/02 00:46:43;;;;;;;29.50;12.10;;;11.10;64.70;;;;;;5086195;22;20147;-62
2021/03/02 00:49:09;;;;;;;23.65;11.90;;;11.10;64.70;;;;;;5105941;22;20055;-62
2021/03/02 00:51:35;;;;;;;26.38;12.45;;;10.90;65.10;;;;;;5084763;22;20079;-62
2021/03/02 00:54:00;;;;;;;32.17;12.52;;;11.00;65.30;;;;;;5082620;22;20101;-62
2021/03/02 00:56:27;;;;;;;28.60;11.52;;;10.90;65.30;;;;;;5103000;22;20060;-62
2021/03/02 00:58:52;;;;;;;26.90;12.15;;;10.90;65.10;;;;;;5103340;22;20052;-62
2021/03/02 01:03:44;;;;;;;26.90;11.98;;;10.90;65.50;;;;;;5105478;22;20468;-62
2021/03/02 01:06:10;;;;;;;29.63;12.73;;;10.90;65.60;;;;;;5087043;22;20052;-62
2021/03/02 01:08:36;;;;;;;28.00;12.30;;;10.80;65.80;;;;;;5102993;22;20396;-62
2021/03/02 01:11:02;;;;;;;28.88;12.98;;;10.80;65.70;;;;;;5105952;22;20051;-62
2021/03/02 01:13:28;;;;;;;25.58;12.25;;;10.80;65.70;;;;;;5083429;22;20059;-62
2021/03/02 01:15:54;;;;;;;25.77;11.18;;;10.90;65.60;;;;;;5082924;22;20060;-62
2021/03/02 01:18:20;;;;;;;33.15;12.55;;;10.90;65.40;;;;;;5102747;22;20048;-62
2021/03/02 01:20:46;;;;;;;32.70;12.13;;;10.90;65.60;;;;;;5102849;22;20056;-62
2021/03/02 01:23:11;;;;;;;25.75;12.32;;;11.00;65.70;;;;;;5103373;22;20091;-62
2021/03/02 01:25:37;;;;;;;29.92;13.63;;;11.10;65.70;;;;;;5104113;22;20504;-62
2021/03/02 01:28:04;;;;;;;35.30;14.05;;;11.10;65.70;;;;;;5066323;22;20485;-62
2021/03/02 01:30:30;;;;;;;26.02;12.48;;;11.10;66.20;;;;;;5082302;22;20052;-62
2021/03/02 01:32:56;;;;;;;26.40;13.10;;;11.00;66.40;;;;;;5103007;22;20104;-62
2021/03/02 01:35:22;;;;;;;25.70;13.07;;;11.00;66.70;;;;;;5083571;22;20053;-61
2021/03/02 01:37:48;;;;;;;27.77;13.02;;;11.00;67.20;;;;;;5082863;23;20056;-62
2021/03/02 01:40:16;;;;;;;33.65;13.38;;;10.90;67.50;;;;;;5102313;22;20055;-62
2021/03/02 01:42:43;;;;;;;22.77;13.13;;;10.90;67.80;;;;;;5082986;22;20139;-62
2021/03/02 01:45:11;;;;;;;34.25;13.95;;;10.90;68.20;;;;;;5102509;22;20127;-62
2021/03/02 01:54:58;;;;;;;37.22;14.77;;;11.00;69.20;;;;;;5107647;22;20048;-62
2021/03/02 01:57:24;;;;;;;26.95;14.45;;;11.00;69.20;;;;;;5080369;28;20101;-62
2021/03/02 01:59:49;;;;;;;26.67;14.20;;;11.10;69.50;;;;;;5109015;22;20044;-62
2021/03/02 02:09:51;;;;;;;30.08;14.02;;;11.20;69.50;;;;;;5108113;22;20074;-62
2021/03/02 02:12:37;;;;;;;32.47;14.60;;;11.20;69.70;;;;;;5107328;22;20072;-61
2021/03/02 02:20:30;;;;;;;35.35;14.88;;;11.00;69.80;;;;;;5107452;22;20294;-61
2021/03/02 02:23:02;;;;;;;34.10;15.55;;;11.00;70.10;;;;;;5107967;22;20180;-62
2021/03/02 02:25:33;;;;;;;34.40;15.60;;;10.90;70.40;;;;;;5107777;22;20579;-62
2021/03/02 02:28:01;;;;;;;29.88;16.30;;;10.80;70.20;;;;;;5086303;22;20082;-62
2021/03/02 02:32:55;;;;;;;32.70;15.80;;;10.80;70.30;;;;;;5087117;22;20052;-62
2021/03/02 02:35:23;;;;;;;33.10;16.23;;;10.70;70.40;;;;;;5106888;22;20059;-62
2021/03/02 02:42:49;;;;;;;30.25;15.88;;;10.70;70.80;;;;;;5106162;22;20510;-62
2021/03/02 02:47:42;;;;;;;39.20;16.58;;;10.60;71.30;;;;;;5083877;22;20056;-62
2021/03/02 02:50:08;;;;;;;36.20;16.13;;;10.60;71.20;;;;;;5085112;22;20052;-62
2021/03/02 02:52:35;;;;;;;30.02;15.95;;;10.60;71.40;;;;;;5105497;22;20147;-62
2021/03/02 03:15:06;;;;;;;32.22;15.20;;;10.50;71.50;;;;;;5105864;22;20044;-62
2021/03/02 03:29:46;;;;;;;32.83;16.13;;;10.40;72.00;;;;;;5105785;22;20052;-62
2021/03/02 03:32:14;;;;;;;33.20;15.68;;;10.40;72.00;;;;;;5107944;22;20065;-62
2021/03/02 03:34:42;;;;;;;35.55;15.15;;;10.40;72.10;;;;;;5104588;22;20044;-62
2021/03/02 03:37:08;;;;;;;31.73;15.10;;;10.50;71.70;;;;;;5087603;22;20060;-62
2021/03/02 03:39:34;;;;;;;28.92;13.77;;;10.40;71.90;;;;;;5107106;22;20052;-62
2021/03/02 03:44:26;;;;;;;26.35;14.55;;;10.40;71.90;;;;;;5085604;22;20060;-62
2021/03/02 03:46:53;;;;;;;28.33;14.13;;;10.50;71.90;;;;;;5083429;22;20139;-62
2021/03/02 03:49:19;;;;;;;32.55;15.43;;;10.40;72.10;;;;;;5087015;22;20052;-62
2021/03/02 03:51:46;;;;;;;30.40;15.27;;;10.30;72.20;;;;;;5087033;22;20138;-62
2021/03/02 03:54:13;;;;;;;30.40;14.70;;;10.40;71.90;;;;;;5068156;22;20052;-62
2021/03/02 03:56:41;;;;;;;25.95;13.23;;;10.50;71.60;;;;;;5083893;22;20059;-62
2021/03/02 03:59:07;;;;;;;37.22;14.60;;;10.50;71.20;;;;;;5063644;22;20049;-62
2021/03/02 04:04:00;;;;;;;33.70;14.00;;;10.60;70.70;;;;;;5113894;22;20088;-62
2021/03/02 04:06:26;;;;;;;27.77;13.07;;;10.60;70.50;;;;;;5083261;22;20057;-62
2021/03/02 04:08:52;;;;;;;23.30;12.52;;;10.60;70.70;;;;;;5106258;22;20056;-62
2021/03/02 04:11:37;;;;;;;28.70;13.85;;;10.60;70.20;;;;;;5100987;22;20919;-63
2021/03/02 04:16:31;;;;;;;28.20;13.20;;;10.60;70.00;;;;;;5139419;22;20124;-63
2021/03/02 04:21:22;;;;;;;30.75;12.50;;;10.60;70.20;;;;;;5140208;22;20059;-63
2021/03/02 04:23:48;;;;;;;25.02;11.98;;;10.60;70.20;;;;;;5118206;22;20059;-63
2021/03/02 04:26:14;;;;;;;27.35;12.40;;;10.60;70.10;;;;;;5139206;22;20055;-60
2021/03/02 04:28:40;;;;;;;32.42;12.55;;;10.60;70.10;;;;;;5118898;22;20055;-60
2021/03/02 04:31:06;;;;;;;30.10;12.52;;;10.50;70.20;;;;;;5139761;22;20142;-63
2021/03/02 04:33:32;;;;;;;22.58;11.82;;;10.50;70.10;;;;;;5119243;22;20052;-60
2021/03/02 04:35:57;;;;;;;31.90;12.52;;;10.50;69.90;;;;;;5138303;22;20051;-62
2021/03/02 04:38:23;;;;;;;28.73;11.20;;;10.50;70.00;;;;;;5118833;22;20052;-63
2021/03/02 04:40:49;;;;;;;26.50;10.88;;;10.50;69.90;;;;;;5138073;22;20151;-63
2021/03/02 04:43:15;;;;;;;26.27;12.07;;;10.50;69.70;;;;;;5118423;22;20052;-63
2021/03/02 04:45:41;;;;;;;27.25;11.77;;;10.50;69.20;;;;;;5137829;22;20058;-62
2021/03/02 04:48:07;;;;;;;25.50;11.55;;;10.50;69.40;;;;;;5119341;22;20488;-63
2021/03/02 04:50:33;;;;;;;21.60;10.80;;;10.50;69.50;;;;;;5137339;22;20079;-63
2021/03/02 04:52:59;;;;;;;25.60;11.07;;;10.50;69.30;;;;;;5119321;22;20083;-63
2021/03/02 04:55:25;;;;;;;26.13;10.77;;;10.40;69.00;;;;;;5058958;22;20061;-63
2021/03/02 05:00:16;;;;;;;24.85;12.00;;;10.40;69.10;;;;;;5079829;22;20048;-60
2021/03/02 05:02:42;;;;;;;23.67;9.73;;;10.40;68.80;;;;;;5061618;23;20152;-63
2021/03/02 05:05:09;;;;;;;29.98;10.88;;;10.50;68.90;;;;;;5061747;23;20073;-63
2021/03/02 05:07:34;;;;;;;24.73;10.45;;;10.40;68.90;;;;;;5159246;22;20057;-63
2021/03/02 05:10:01;;;;;;;23.00;12.15;;;10.40;68.70;;;;;;5141036;22;20137;-63
2021/03/02 05:12:27;;;;;;;24.80;10.88;;;10.40;68.50;;;;;;5140782;22;20082;-60
2021/03/02 05:14:53;;;;;;;28.08;11.18;;;10.40;68.50;;;;;;5119094;22;20087;-63
2021/03/02 05:17:19;;;;;;;28.80;10.82;;;10.40;68.60;;;;;;5159316;22;20054;-63
2021/03/02 05:19:45;;;;;;;19.65;10.13;;;10.40;68.60;;;;;;5141570;22;20047;-63
2021/03/02 05:24:36;;;;;;;26.48;11.13;;;10.40;68.40;;;;;;5125634;22;20059;-62
2021/03/02 05:27:03;;;;;;;29.27;10.43;;;10.40;68.60;;;;;;5106490;22;20048;-62
2021/03/02 05:29:29;;;;;;;27.33;10.32;;;10.40;68.30;;;;;;5124212;22;20062;-63
2021/03/02 05:31:55;;;;;;;27.92;10.88;;;10.30;68.60;;;;;;5103594;22;20056;-62
2021/03/02 05:34:21;;;;;;;25.17;10.45;;;10.30;68.50;;;;;;5123720;22;20044;-60
2021/03/02 05:36:47;;;;;;;21.48;9.85;;;10.20;68.70;;;;;;5104178;22;20044;-60
2021/03/02 05:39:13;;;;;;;20.98;9.63;;;10.20;68.70;;;;;;5123620;22;20142;-60
2021/03/02 05:48:59;;;;;;;25.92;10.32;;;10.10;69.00;;;;;;5125167;22;20043;-63
2021/03/02 05:51:25;;;;;;;25.65;10.65;;;10.00;69.30;;;;;;5106907;22;20078;-62
2021/03/02 05:53:51;;;;;;;23.27;11.13;;;10.10;69.50;;;;;;5121382;22;20047;-64
2021/03/02 05:56:18;;;;;;;27.80;11.20;;;10.00;69.80;;;;;;5106175;22;20043;-64
2021/03/02 05:58:43;;;;;;;31.33;10.55;;;9.90;69.90;;;;;;5119790;22;20460;-64
2021/03/02 06:01:09;;;;;;;22.08;10.55;;;9.90;70.10;;;;;;5105944;22;20052;-64
2021/03/02 06:03:36;;;;;;;30.05;10.65;;;9.80;70.00;;;;;;5118785;22;20470;-64
2021/03/02 06:06:04;;;;;;;27.63;10.73;;;9.80;70.50;;;;;;5106532;22;20066;-61
2021/03/02 06:08:30;;;;;;;30.25;10.75;;;9.70;70.30;;;;;;5125628;22;20039;-64
2021/03/02 06:10:55;;;;;;;20.77;10.57;;;9.70;70.60;;;;;;5105711;22;20131;-64
2021/03/02 06:13:26;;;;;;;29.42;11.48;;;9.70;70.70;;;;;;5125293;22;20196;-64
2021/03/02 06:25:56;;;;;;;18.55;10.60;;;9.70;70.00;;;;;;5123870;22;20500;-64
2021/03/02 06:28:58;;;;;;;34.45;11.10;;;9.60;69.90;;;;;;5105508;22;20055;-59
2021/03/02 06:31:34;;;;;;;26.60;10.02;;;10.30;68.20;;;;;;5124696;22;20044;-59
2021/03/02 06:34:09;;;;;;;22.67;9.82;;;10.10;67.70;;;;;;5104550;22;20121;-59
2021/03/02 06:39:19;;;;;;;23.92;10.43;;;9.80;68.60;;;;;;5119848;22;20515;-60
2021/03/02 06:44:12;;;;;;;29.23;10.02;;;9.80;68.00;;;;;;5144062;22;20050;-57
2021/03/02 06:46:41;;;;;;;31.85;11.63;;;9.70;68.40;;;;;;5123565;22;20526;-58
2021/03/02 06:49:08;;;;;;;29.35;10.30;;;9.70;68.30;;;;;;5125140;22;20047;-57
2021/03/02 06:56:29;;;;;;;24.70;10.30;;;9.70;67.60;;;;;;5123952;22;20047;-60
2021/03/02 07:17:09;;;;;;;;;;;;;;;;;;;;;
2021/03/02 07:29:41;;;;;;;;;;;;;;;;;;;;;
2021/03/02 07:31:58;;;;;;;27.65;8.90;;;9.90;65.40;;;;;;5122990;22;20079;-57
2021/03/02 07:34:24;;;;;;;27.27;9.48;;;9.90;65.10;;;;;;5104858;23;20057;-58
2021/03/02 07:36:50;;;;;;;27.55;8.80;;;10.00;65.20;;;;;;5125228;22;20074;-58
2021/03/02 07:41:51;;;;;;;26.83;9.18;;;10.00;64.30;;;;;;5142920;22;20379;-58
2021/03/02 07:46:44;;;;;;;16.77;8.25;;;10.10;63.80;;;;;;5143529;22;20138;-58
2021/03/02 07:49:22;;;;;;;24.50;8.05;;;10.20;64.10;;;;;;5101434;22;20052;-58
2021/03/02 07:52:00;;;;;;;20.17;8.55;;;10.30;63.00;;;;;;5119441;22;20096;-58
2021/03/02 07:57:17;;;;;;;19.45;7.57;;;10.40;62.40;;;;;;5100569;22;20043;-59
2021/03/02 08:04:46;;;;;;;19.67;7.65;;;10.60;62.00;;;;;;5102532;22;20138;-59
2021/03/02 08:07:24;;;;;;;22.25;7.80;;;10.60;61.70;;;;;;5122246;22;20054;-59
2021/03/02 08:09:54;;;;;;;20.98;7.65;;;10.70;61.30;;;;;;5084553;22;20121;-59
2021/03/02 08:12:26;;;;;;;22.40;7.55;;;10.80;60.90;;;;;;5099437;23;20136;-59
2021/03/02 08:14:52;;;;;;;19.85;7.55;;;10.80;60.90;;;;;;5120816;22;20534;-59
2021/03/02 08:17:22;;;;;;;21.60;7.63;;;10.90;61.10;;;;;;5124136;22;20058;-59
2021/03/02 08:19:51;;;;;;;15.52;7.70;;;10.90;60.90;;;;;;5104539;22;20056;-59
2021/03/02 08:22:20;;;;;;;19.50;7.95;;;10.90;60.90;;;;;;5123898;22;20054;-59
2021/03/02 08:25:03;;;;;;;;;;;;;;;;;;;;;
2021/03/02 08:27:38;;;;;;;19.17;7.13;;;10.80;60.80;;;;;;5121802;22;20052;-59
2021/03/02 08:32:37;;;;;;;25.00;8.32;;;10.80;61.10;;;;;;5121880;22;20043;-58
2021/03/02 08:45:11;;;;;;;32.20;8.68;;;10.80;61.60;;;;;;5122337;22;20056;-59
2021/03/02 08:47:37;;;;;;;23.88;8.68;;;10.80;61.20;;;;;;5083766;23;20079;-58
2021/03/02 08:50:05;;;;;;;21.27;8.95;;;10.80;61.80;;;;;;5120048;22;20500;-58
2021/03/02 08:52:38;;;;;;;20.38;7.68;;;10.70;61.60;;;;;;5104422;22;20051;-58
2021/03/02 08:55:06;;;;;;;22.83;8.88;;;10.60;61.60;;;;;;5123821;22;20071;-58
2021/03/02 08:57:45;;;;;;;21.05;9.45;;;10.60;61.60;;;;;;5126723;22;20051;-58
2021/03/02 09:00:17;;;;;;;18.08;7.85;;;10.60;62.10;;;;;;5107837;22;20052;-58
2021/03/02 09:08:08;;;;;;;24.17;8.80;;;10.70;63.10;;;;;;5106126;22;20048;-58
2021/03/02 09:10:34;;;;;;;19.98;8.18;;;10.70;63.40;;;;;;5124215;22;20052;-59
2021/03/02 09:15:36;;;;;;;28.45;9.23;;;10.90;63.50;;;;;;5146380;22;20074;-59
2021/03/02 09:20:56;;;;;;;23.45;9.13;;;11.00;63.80;;;;;;5146220;22;20510;-58
2021/03/02 09:23:26;;;;;;;19.55;8.73;;;11.00;64.30;;;;;;5104290;22;20560;-58
2021/03/02 09:25:52;;;;;;;21.73;9.60;;;11.10;64.10;;;;;;5124044;22;20052;-59
2021/03/02 09:28:18;;;;;;;24.75;9.70;;;11.20;64.20;;;;;;5108153;22;20048;-59
2021/03/02 09:30:45;;;;;;;21.98;9.10;;;11.20;64.00;;;;;;5127765;22;20047;-58
2021/03/02 09:33:16;;;;;;;18.40;8.93;;;11.20;64.20;;;;;;5104316;22;20056;-58
2021/03/02 09:35:42;;;;;;;21.58;9.35;;;11.20;64.70;;;;;;5087636;22;20055;-58
2021/03/02 09:45:34;;;;;;;22.35;8.98;;;11.30;65.20;;;;;;5145197;22;20050;-59
2021/03/02 09:48:08;;;;;;;19.85;9.85;;;11.40;65.30;;;;;;5124947;22;20096;-58
2021/03/02 09:53:14;;;;;;;20.33;9.63;;;11.50;65.70;;;;;;5144701;22;20059;-59
2021/03/02 09:55:42;;;;;;;20.85;9.27;;;11.50;65.80;;;;;;5127484;22;20039;-58
2021/03/02 10:00:45;;;;;;;30.67;9.68;;;11.60;66.40;;;;;;5125244;22;20055;-59
2021/03/02 10:03:17;;;;;;;25.95;9.80;;;11.70;66.30;;;;;;5086761;22;20056;-59
2021/03/02 10:16:28;;;;;;;17.15;9.52;;;12.20;66.30;;;;;;5125150;22;20070;-59
2021/03/02 10:19:14;;;;;;;22.30;9.70;;;12.30;66.10;;;;;;5143528;22;20043;-59
2021/03/02 10:24:24;;;;;;;21.92;10.35;;;12.60;65.40;;;;;;5144717;22;20046;-58
2021/03/02 10:26:50;;;;;;;31.08;11.45;;;12.70;65.70;;;;;;5145138;22;20044;-59
2021/03/02 10:29:16;;;;;;;20.50;9.77;;;13.00;64.80;;;;;;5105678;22;20058;-59
2021/03/02 10:34:10;;;;;;;27.27;10.63;;;13.30;64.50;;;;;;5145216;22;20050;-59
2021/03/02 10:41:33;;;;;;;26.27;10.43;;;13.10;65.60;;;;;;5123663;22;20055;-59
2021/03/02 10:53:46;;;;;;;28.88;9.77;;;13.40;65.50;;;;;;5123537;22;20044;-59
2021/03/02 10:56:13;;;;;;;25.40;9.80;;;13.50;65.50;;;;;;5084765;22;20055;-59
2021/03/02 10:58:40;;;;;;;23.45;9.75;;;13.70;64.90;;;;;;5121378;22;20043;-59
2021/03/02 11:01:06;;;;;;;28.17;10.57;;;13.90;64.70;;;;;;5105648;22;20097;-59
2021/03/02 11:03:32;;;;;;;27.45;10.10;;;14.00;64.20;;;;;;5125801;22;20047;-59
2021/03/02 11:05:58;;;;;;;31.33;9.70;;;14.20;63.70;;;;;;5125170;22;20050;-59
2021/03/02 11:08:24;;;;;;;23.67;10.27;;;14.50;62.70;;;;;;5123824;22;20132;-59
2021/03/02 11:10:50;;;;;;;20.58;9.98;;;14.70;62.30;;;;;;5100876;22;20178;-59
2021/03/02 11:15:42;;;;;;;23.85;9.57;;;15.20;60.80;;;;;;5123299;22;20043;-59
2021/03/02 11:18:09;;;;;;;27.67;9.68;;;14.90;61.30;;;;;;5142038;22;20057;-59
2021/03/02 11:30:21;;;;;;;24.27;9.30;;;15.30;59.90;;;;;;5143738;22;20051;-59
2021/03/02 11:32:47;;;;;;;23.95;9.48;;;15.30;59.60;;;;;;5125330;22;20059;-59
2021/03/02 11:42:37;;;;;;;32.53;11.52;;;15.10;60.90;;;;;;5122994;22;20499;-58
2021/03/02 11:45:08;;;;;;;38.05;12.13;;;15.00;62.10;;;;;;5082078;22;20090;-59
2021/03/02 11:47:34;;;;;;;117.95;31.52;;;15.00;61.80;;;;;;5064898;22;20056;-58
2021/03/02 11:50:00;;;;;;;26.25;10.07;;;15.00;61.50;;;;;;5102286;22;20047;-58
2021/03/02 12:02:14;;;;;;;31.63;10.00;;;16.40;58.50;;;;;;5142994;22;20043;-59
2021/03/02 12:04:41;;;;;;;23.02;9.00;;;16.60;57.10;;;;;;5084239;22;20052;-59
2021/03/02 12:09:34;;;;;;;138.60;40.47;;;16.20;58.10;;;;;;5122981;22;20047;-60
2021/03/02 12:12:01;;;;;;;107.60;31.85;;;16.30;58.80;;;;;;5101444;22;20105;-60
2021/03/02 12:14:27;;;;;;;96.80;28.10;;;16.60;57.90;;;;;;5122923;22;20047;-60
2021/03/02 12:20:55;;;;;;;29.38;11.48;;;17.10;55.00;;;;;;5067590;27;20389;-73
2021/03/02 12:23:21;;;;;;;23.70;10.10;;;16.90;56.40;;;;;;5055576;28;20045;-74
2021/03/02 12:25:47;;;;;;;23.35;8.60;;;17.00;56.60;;;;;;5070965;28;20102;-73
2021/03/02 12:28:13;;;;;;;42.72;14.38;;;17.20;55.90;;;;;;5071321;28;20048;-76
2021/03/02 12:30:39;;;;;;;32.17;12.45;;;17.40;56.60;;;;;;5072100;28;20024;-77
2021/03/02 12:33:06;;;;;;;29.83;11.45;;;17.30;55.40;;;;;;5053105;28;20045;-76
2021/03/02 12:35:32;;;;;;;28.13;9.80;;;17.10;55.90;;;;;;5048605;28;20090;-77
2021/03/02 12:37:58;;;;;;;25.77;9.77;;;17.30;55.60;;;;;;5048447;28;20056;-77
2021/03/02 12:40:24;;;;;;;25.88;9.18;;;17.40;54.90;;;;;;5049680;28;20049;-76
2021/03/02 12:42:50;;;;;;;29.70;11.13;;;17.20;55.60;;;;;;5049447;28;20120;-77
2021/03/02 12:45:19;;;;;;;39.25;12.95;;;17.30;56.00;;;;;;5046114;28;20175;-77
2021/03/02 12:47:45;;;;;;;23.15;9.82;;;17.70;54.80;;;;;;5049323;28;20056;-77
2021/03/02 12:50:11;;;;;;;27.38;10.20;;;18.00;53.60;;;;;;5049469;28;20036;-77
2021/03/02 12:52:38;;;;;;;23.27;8.68;;;18.00;53.70;;;;;;5049493;28;20047;-78
2021/03/02 12:55:06;;;;;;;37.75;13.07;;;17.90;53.70;;;;;;5048254;28;20044;-75
2021/03/02 12:57:32;;;;;;;25.70;8.23;;;18.20;54.30;;;;;;5049654;28;20045;-81
2021/03/02 12:59:58;;;;;;;15.38;7.50;;;17.90;54.00;;;;;;5049947;28;20033;-81
2021/03/02 13:02:24;;;;;;;23.92;8.63;;;18.10;54.00;;;;;;5048104;28;20489;-80
2021/03/02 13:04:52;;;;;;;28.20;8.45;;;18.20;53.30;;;;;;5048338;28;20044;-80
2021/03/02 13:07:18;;;;;;;23.65;8.82;;;18.20;53.30;;;;;;5049266;28;20086;-78
2021/03/02 13:09:45;;;;;;;30.80;9.80;;;18.10;53.10;;;;;;5049798;28;20033;-81
2021/03/02 13:12:11;;;;;;;23.15;9.00;;;17.90;53.50;;;;;;5049687;28;20041;-83
2021/03/02 13:14:39;;;;;;;23.73;7.97;;;18.00;53.60;;;;;;5049398;28;20200;-83
2021/03/02 13:17:05;;;;;;;27.33;8.55;;;18.20;52.10;;;;;;5050115;28;20061;-82
2021/03/02 13:19:36;;;;;;;22.98;8.13;;;18.10;52.10;;;;;;5048320;28;20049;-83
2021/03/02 13:22:04;;;;;;;21.55;8.02;;;18.10;52.50;;;;;;5049394;28;20045;-82
2021/03/02 13:24:29;;;;;;;22.08;8.50;;;18.40;52.40;;;;;;5049418;28;20025;-83
2021/03/02 13:26:56;;;;;;;22.65;9.15;;;18.60;51.90;;;;;;5048147;28;20041;-84
2021/03/02 13:29:23;;;;;;;22.50;9.40;;;18.60;52.00;;;;;;5049236;28;20126;-83
2021/03/02 13:31:52;;;;;;;23.40;8.70;;;18.40;52.40;;;;;;5037293;28;20535;-83
2021/03/02 13:34:20;;;;;;;22.02;8.10;;;18.20;53.10;;;;;;5035632;28;20060;-79
2021/03/02 13:36:48;;;;;;;28.88;8.73;;;18.30;53.10;;;;;;5035917;28;20045;-80
2021/03/02 13:39:16;;;;;;;20.83;8.40;;;18.30;53.40;;;;;;5035380;28;20041;-80
2021/03/02 13:41:50;;;;;;;26.15;8.10;;;18.30;53.60;;;;;;5035280;28;20045;-81
2021/03/02 13:44:18;;;;;;;28.40;8.73;;;18.20;53.50;;;;;;5035868;28;20091;-79
2021/03/02 13:46:49;;;;;;;20.67;8.25;;;18.50;53.50;;;;;;5036357;28;20037;-79
2021/03/02 13:49:16;;;;;;;17.30;8.05;;;18.70;52.20;;;;;;5036128;28;20029;-80
2021/03/02 13:51:46;;;;;;;24.95;8.90;;;18.50;52.50;;;;;;5035102;28;20046;-79
2021/03/02 13:54:13;;;;;;;19.92;8.45;;;18.50;52.40;;;;;;5039296;28;20037;-77
2021/03/02 13:56:41;;;;;;;24.77;8.13;;;18.50;52.60;;;;;;5038995;28;20045;-77
2021/03/02 13:59:07;;;;;;;23.92;7.88;;;18.70;52.80;;;;;;5037625;28;20052;-78
2021/03/02 14:01:34;;;;;;;22.65;8.57;;;18.90;53.00;;;;;;5037191;28;20041;-82
2021/03/02 14:04:06;;;;;;;23.45;8.02;;;18.90;52.80;;;;;;5036890;28;20044;-80
2021/03/02 14:06:36;;;;;;;25.27;8.27;;;19.00;53.00;;;;;;5036696;28;20068;-79
2021/03/02 14:09:02;;;;;;;24.40;8.27;;;19.00;51.70;;;;;;5035040;28;20406;-81
2021/03/02 14:11:29;;;;;;;21.40;8.38;;;18.90;52.20;;;;;;5035069;28;20059;-81
2021/03/02 14:13:58;;;;;;;20.83;8.65;;;18.90;53.00;;;;;;5035322;28;20099;-80
2021/03/02 14:16:26;;;;;;;24.90;8.93;;;19.00;52.70;;;;;;5036919;28;20041;-80
2021/03/02 14:18:56;;;;;;;19.23;8.80;;;19.00;52.70;;;;;;5036553;28;20045;-80
2021/03/02 14:21:24;;;;;;;21.45;7.63;;;18.90;51.90;;;;;;5036373;28;20046;-80
2021/03/02 14:23:51;;;;;;;23.77;8.35;;;18.60;51.70;;;;;;5036271;28;20037;-80
2021/03/02 14:26:17;;;;;;;20.98;8.60;;;18.50;52.10;;;;;;5037150;28;20066;-81
2021/03/02 14:28:44;;;;;;;24.05;8.40;;;18.60;51.80;;;;;;5040009;28;20041;-79
2021/03/02 14:31:11;;;;;;;19.90;6.93;;;18.70;50.00;;;;;;5041493;28;20048;-79
2021/03/02 14:33:40;;;;;;;22.67;7.10;;;18.80;50.40;;;;;;5041568;28;20088;-79
2021/03/02 14:36:07;;;;;;;22.42;7.47;;;18.80;51.10;;;;;;5040142;28;20086;-79
2021/03/02 14:38:33;;;;;;;24.17;7.20;;;18.90;51.20;;;;;;5042568;28;20099;-79
2021/03/02 14:41:03;;;;;;;20.15;7.60;;;18.80;50.20;;;;;;5042311;28;20132;-80
2021/03/02 14:43:36;;;;;;;20.33;7.38;;;18.70;50.90;;;;;;5041788;28;20037;-80
2021/03/02 14:46:04;;;;;;;28.60;8.02;;;18.60;50.50;;;;;;5042881;28;20051;-81
2021/03/02 14:48:37;;;;;;;19.77;7.78;;;18.50;50.60;;;;;;5042687;28;20060;-88
2021/03/02 14:51:03;;;;;;;28.85;8.23;;;18.50;50.70;;;;;;5041931;28;20045;-78
2021/03/02 14:53:32;;;;;;;24.25;7.43;;;18.30;51.30;;;;;;5041307;28;20102;-76
2021/03/02 14:56:04;;;;;;;24.08;7.78;;;18.50;51.00;;;;;;5040794;28;20093;-84
2021/03/02 14:58:33;;;;;;;26.42;7.50;;;18.60;51.10;;;;;;5037968;28;20045;-79
2021/03/02 15:01:01;;;;;;;20.98;7.35;;;18.40;51.30;;;;;;5039463;28;20040;-79
2021/03/02 15:03:28;;;;;;;24.38;8.30;;;18.40;51.90;;;;;;5037063;28;20029;-80
2021/03/02 15:05:54;;;;;;;23.20;8.13;;;18.50;51.40;;;;;;5034044;28;20033;-79
2021/03/02 15:08:22;;;;;;;28.45;8.77;;;18.60;51.50;;;;;;5033924;28;20041;-79
2021/03/02 15:10:49;;;;;;;23.73;8.57;;;18.50;51.00;;;;;;5034970;28;20095;-79
2021/03/02 15:13:17;;;;;;;25.20;7.70;;;18.50;51.50;;;;;;5034736;28;20042;-78
2021/03/02 15:15:45;;;;;;;18.25;7.72;;;18.30;50.60;;;;;;5034349;28;20041;-79
2021/03/02 15:18:13;;;;;;;16.17;6.80;;;18.20;51.10;;;;;;5033221;28;20091;-80
2021/03/02 15:20:39;;;;;;;25.55;8.10;;;18.00;51.70;;;;;;5033630;28;20128;-79
2021/03/02 15:23:08;;;;;;;20.65;7.55;;;18.00;52.10;;;;;;5035045;28;20064;-79
2021/03/02 15:25:42;;;;;;;26.88;8.23;;;18.00;51.80;;;;;;5033940;28;20037;-79
2021/03/02 15:28:10;;;;;;;24.35;7.65;;;18.00;51.90;;;;;;5035917;28;20030;-78
2021/03/02 15:30:37;;;;;;;23.45;8.20;;;18.00;51.90;;;;;;5035449;28;20124;-79
2021/03/02 15:33:10;;;;;;;20.60;7.35;;;18.00;51.90;;;;;;5033685;28;20041;-81
2021/03/02 15:35:38;;;;;;;25.23;7.57;;;18.10;51.90;;;;;;5033802;28;20045;-80
2021/03/02 15:38:08;;;;;;;14.50;6.93;;;18.10;52.00;;;;;;5034058;28;20037;-80
2021/03/02 15:40:35;;;;;;;18.92;7.22;;;18.10;52.10;;;;;;5033560;28;20042;-80
2021/03/02 15:43:01;;;;;;;21.95;7.13;;;18.10;52.30;;;;;;5031457;28;20068;-80
2021/03/02 15:45:27;;;;;;;20.25;7.75;;;18.00;52.40;;;;;;5034220;28;20033;-80
2021/03/02 15:47:56;;;;;;;26.30;8.55;;;18.00;52.10;;;;;;5035443;28;20029;-80
2021/03/02 15:50:23;;;;;;;24.73;7.38;;;18.10;52.00;;;;;;5033558;28;20037;-79
2021/03/02 15:52:50;;;;;;;19.48;7.07;;;18.00;52.00;;;;;;5033938;28;20612;-80
2021/03/02 15:55:17;;;;;;;23.55;7.10;;;17.90;52.20;;;;;;5033906;28;20099;-80
2021/03/02 15:57:43;;;;;;;27.58;7.78;;;17.90;52.30;;;;;;5034376;28;20124;-80
2021/03/02 16:00:13;;;;;;;22.02;7.00;;;17.90;52.40;;;;;;5034485;28;20047;-80
2021/03/02 16:02:46;;;;;;;19.90;7.18;;;17.80;52.90;;;;;;5032369;28;20033;-79
2021/03/02 16:05:14;;;;;;;21.40;7.55;;;17.80;53.30;;;;;;5034276;28;20041;-80
2021/03/02 16:07:45;;;;;;;23.60;7.60;;;17.60;53.40;;;;;;5033071;28;20053;-79
2021/03/02 16:10:14;;;;;;;20.52;7.57;;;17.60;53.70;;;;;;5033705;28;20755;-78
2021/03/02 16:12:41;;;;;;;27.25;9.60;;;17.60;53.50;;;;;;5033635;28;20600;-79
2021/03/02 16:15:12;;;;;;;19.45;8.32;;;17.60;53.70;;;;;;5034072;28;20045;-80
2021/03/02 16:17:46;;;;;;;18.48;6.93;;;17.60;53.60;;;;;;5032790;28;20048;-79
2021/03/02 16:20:14;;;;;;;33.22;14.90;;;17.60;53.10;;;;;;5031861;28;20045;-78
2021/03/02 16:22:53;;;;;;;18.52;7.43;;;17.70;53.60;;;;;;5033141;28;20041;-78
2021/03/02 16:25:19;;;;;;;24.25;7.88;;;17.60;53.70;;;;;;5033831;28;20536;-79
2021/03/02 16:27:46;;;;;;;21.27;7.18;;;17.60;53.60;;;;;;5034017;28;20064;-78
2021/03/02 16:30:14;;;;;;;19.20;7.40;;;17.60;54.20;;;;;;5031933;28;20048;-76
2021/03/02 16:32:41;;;;;;;20.55;7.30;;;17.50;54.10;;;;;;5033202;28;20064;-82
2021/03/02 16:35:09;;;;;;;22.00;7.30;;;17.50;54.40;;;;;;5032463;28;20037;-77
2021/03/02 16:37:36;;;;;;;21.60;6.97;;;17.30;54.90;;;;;;5033392;28;20457;-78
2021/03/02 16:40:05;;;;;;;20.20;7.35;;;17.30;55.20;;;;;;5032232;28;20048;-78
2021/03/02 16:42:32;;;;;;;20.98;7.10;;;17.40;55.40;;;;;;5033131;28;20489;-77
2021/03/02 16:44:59;;;;;;;24.38;7.68;;;17.30;55.00;;;;;;5032028;28;20091;-77
2021/03/02 16:47:25;;;;;;;20.80;7.93;;;17.20;56.40;;;;;;5033342;28;20056;-78
2021/03/02 16:49:54;;;;;;;19.83;8.18;;;17.10;56.10;;;;;;5033554;28;20037;-77
2021/03/02 16:52:45;;;;;;;26.30;8.57;;;17.00;56.30;;;;;;5033564;28;20531;-78
2021/03/02 16:55:37;;;;;;;25.60;7.50;;;16.90;56.70;;;;;;5029289;28;20087;-81
2021/03/02 16:58:19;;;;;;;17.38;7.50;;;16.70;57.20;;;;;;5033312;28;20042;-84